createdAt,value
2023-02-24T00:01:59.697Z,35.00
2023-02-24T00:04:29.433Z,36.30
2023-02-24T00:06:56.125Z,41.20
2023-02-24T00:09:28.560Z,38.80
2023-02-24T00:12:00.560Z,35.10
2023-02-24T00:14:30.441Z,34.50
2023-02-24T00:17:00.807Z,38.90
2023-02-24T00:19:33.486Z,39.50
2023-02-24T00:22:02.061Z,42.10
2023-02-24T00:24:28.789Z,41.80
2023-02-24T00:26:59.079Z,42.90
2023-02-24T00:29:28.306Z,40.70
2023-02-24T00:32:00.146Z,34.10
2023-02-24T00:34:29.737Z,37.90
2023-02-24T00:36:57.710Z,43.40
2023-02-24T00:39:33.081Z,36.90
2023-02-24T00:42:04.445Z,37.00
2023-02-24T00:44:44.322Z,36.00
2023-02-24T00:47:11.990Z,41.70
2023-02-24T00:49:41.628Z,40.10
2023-02-24T00:52:17.766Z,37.60
2023-02-24T00:54:47.248Z,40.60
2023-02-24T00:57:18.060Z,40.40
2023-02-24T00:59:47.047Z,37.90
2023-02-24T01:02:14.945Z,40.90
2023-02-24T01:04:43.811Z,39.50
2023-02-24T01:07:11.417Z,42.30
2023-02-24T01:09:40.871Z,40.60
2023-02-24T01:12:28.928Z,41.40
2023-02-24T01:14:58.293Z,42.00
2023-02-24T01:17:25.039Z,43.50
2023-02-24T01:19:51.850Z,44.60
2023-02-24T01:22:20.306Z,41.10
2023-02-24T01:24:47.906Z,40.20
2023-02-24T01:27:19.300Z,39.60
2023-02-24T01:29:47.135Z,39.10
2023-02-24T01:32:20.119Z,39.50
2023-02-24T01:34:50.818Z,38.70
2023-02-24T01:37:18.653Z,39.00
2023-02-24T01:39:45.986Z,37.00
2023-02-24T01:42:18.910Z,41.60
2023-02-24T01:44:47.069Z,38.40
2023-02-24T01:47:17.834Z,44.50
2023-02-24T01:49:47.147Z,49.50
2023-02-24T01:52:24.257Z,44.70
2023-02-24T01:55:08.711Z,46.40
2023-02-24T01:57:38.379Z,45.30
2023-02-24T02:00:18.830Z,39.30
2023-02-24T02:02:52.034Z,45.50
2023-02-24T02:05:18.880Z,42.80
2023-02-24T02:07:45.853Z,41.40
2023-02-24T02:10:13.464Z,45.30
2023-02-24T02:12:45.488Z,44.00
2023-02-24T02:15:19.784Z,49.20
2023-02-24T02:18:27.458Z,45.60
2023-02-24T02:21:06.520Z,44.20
2023-02-24T02:23:50.590Z,43.40
2023-02-24T02:26:20.709Z,44.20
2023-02-24T02:28:54.583Z,50.70
2023-02-24T02:31:46.118Z,43.70
2023-02-24T02:34:19.625Z,43.60
2023-02-24T02:37:11.751Z,43.40
2023-02-24T02:40:07.614Z,41.00
2023-02-24T02:42:50.849Z,44.50
2023-02-24T02:45:24.207Z,47.10
2023-02-24T02:48:23.964Z,46.80
2023-02-24T02:51:03.646Z,52.70
2023-02-24T02:53:39.335Z,48.70
2023-02-24T02:56:31.527Z,53.50
2023-02-24T02:59:00.421Z,49.20
2023-02-24T03:01:33.573Z,47.30
2023-02-24T03:04:05.084Z,49.70
2023-02-24T03:06:34.630Z,55.90
2023-02-24T03:09:11.979Z,51.90
2023-02-24T03:11:41.009Z,56.00
2023-02-24T03:14:12.310Z,52.30
2023-02-24T03:16:43.220Z,59.60
2023-02-24T03:19:13.182Z,54.30
2023-02-24T03:21:57.685Z,54.20
2023-02-24T03:24:24.484Z,54.90
2023-02-24T03:27:11.295Z,61.40
2023-02-24T03:29:48.234Z,58.30
2023-02-24T03:32:32.737Z,61.20
2023-02-24T03:35:13.162Z,58.50
2023-02-24T03:37:41.197Z,54.40
2023-02-24T03:40:13.935Z,62.10
2023-02-24T03:42:45.725Z,58.30
2023-02-24T03:45:13.194Z,56.40
2023-02-24T03:47:41.053Z,59.20
2023-02-24T03:50:15.704Z,57.10
2023-02-24T03:52:51.607Z,58.80
2023-02-24T03:55:45.725Z,60.70
2023-02-24T03:58:27.717Z,53.70
2023-02-24T04:00:55.311Z,59.70
2023-02-24T04:03:27.901Z,61.20
2023-02-24T04:06:08.390Z,57.10
2023-02-24T04:09:00.860Z,61.60
2023-02-24T04:11:43.609Z,60.80
2023-02-24T04:14:34.276Z,67.80
2023-02-24T04:17:12.894Z,67.00
2023-02-24T04:19:43.921Z,63.80
2023-02-24T04:22:15.032Z,67.30
2023-02-24T04:24:44.215Z,65.80
2023-02-24T04:27:12.761Z,69.90
2023-02-24T04:29:51.473Z,60.50
2023-02-24T04:32:24.680Z,67.10
2023-02-24T04:34:51.969Z,64.10
2023-02-24T04:37:22.499Z,64.40
2023-02-24T04:39:50.320Z,66.90
2023-02-24T04:42:23.199Z,67.30
2023-02-24T04:44:50.068Z,66.20
2023-02-24T04:47:16.721Z,63.50
2023-02-24T04:49:43.962Z,69.40
2023-02-24T04:52:11.514Z,67.50
2023-02-24T04:54:38.288Z,62.90
2023-02-24T04:57:06.733Z,69.10
2023-02-24T04:59:33.380Z,65.80
2023-02-24T05:02:01.240Z,66.60
2023-02-24T05:04:29.525Z,71.30
2023-02-24T05:06:57.055Z,66.60
2023-02-24T05:09:23.966Z,70.20
2023-02-24T05:11:51.845Z,65.90
2023-02-24T05:14:24.498Z,64.10
2023-02-24T05:16:51.428Z,69.70
2023-02-24T05:19:38.559Z,73.40
2023-02-24T05:22:06.519Z,68.10
2023-02-24T05:24:34.130Z,68.90
2023-02-24T05:27:03.180Z,69.80
2023-02-24T05:29:34.310Z,69.90
2023-02-24T05:32:03.469Z,70.50
2023-02-24T05:34:31.949Z,74.60
2023-02-24T05:37:01.064Z,65.00
2023-02-24T05:39:27.863Z,73.80
2023-02-24T05:41:56.653Z,65.80
2023-02-24T05:44:25.459Z,70.30
2023-02-24T05:46:58.043Z,63.60
2023-02-24T05:49:32.458Z,70.70
2023-02-24T05:52:06.777Z,61.60
2023-02-24T05:54:40.049Z,70.50
2023-02-24T05:57:13.255Z,62.80
2023-02-24T05:59:41.122Z,59.90
2023-02-24T06:02:13.229Z,63.20
2023-02-24T06:04:50.474Z,63.70
2023-02-24T06:07:18.553Z,61.40
2023-02-24T06:09:49.327Z,64.50
2023-02-24T06:12:17.631Z,61.40
2023-02-24T06:14:44.608Z,58.70
2023-02-24T06:17:11.457Z,62.10
2023-02-24T06:19:39.233Z,54.30
2023-02-24T06:22:10.372Z,58.20
2023-02-24T06:24:37.130Z,73.10
2023-02-24T06:27:10.023Z,60.80
2023-02-24T06:29:37.473Z,61.90
2023-02-24T06:32:10.468Z,59.30
2023-02-24T06:34:38.606Z,60.20
2023-02-24T06:37:09.126Z,58.00
2023-02-24T06:39:36.913Z,58.70
2023-02-24T06:42:04.901Z,58.90
2023-02-24T06:44:33.355Z,60.20
2023-02-24T06:47:00.572Z,57.40
2023-02-24T06:49:28.026Z,56.90
2023-02-24T06:51:57.040Z,61.40
2023-02-24T06:54:27.789Z,56.70
2023-02-24T06:56:55.083Z,58.90
2023-02-24T06:59:22.018Z,58.30
2023-02-24T07:01:48.953Z,59.10
2023-02-24T07:04:16.564Z,60.30
2023-02-24T07:06:48.744Z,53.80
2023-02-24T07:09:18.227Z,58.40
2023-02-24T07:11:51.334Z,60.00
2023-02-24T07:14:23.861Z,56.00
2023-02-24T07:16:54.068Z,59.00
2023-02-24T07:19:28.630Z,61.10
2023-02-24T07:21:59.516Z,55.70
2023-02-24T07:24:39.441Z,55.70
2023-02-24T07:27:21.384Z,63.70
2023-02-24T07:29:53.008Z,56.00
2023-02-24T07:32:25.017Z,60.30
2023-02-24T07:34:52.571Z,64.50
2023-02-24T07:37:20.012Z,53.60
2023-02-24T07:39:49.048Z,57.30
2023-02-24T07:42:15.744Z,54.70
2023-02-24T07:44:45.833Z,56.10
2023-02-24T07:47:15.137Z,58.60
2023-02-24T07:49:41.884Z,56.90
2023-02-24T07:52:10.894Z,50.80
2023-02-24T07:54:38.657Z,55.20
2023-02-24T07:57:05.867Z,52.80
2023-02-24T07:59:34.576Z,51.90
2023-02-24T08:02:04.015Z,49.90
2023-02-24T08:04:32.463Z,48.00
2023-02-24T08:07:02.176Z,51.90
2023-02-24T08:10:06.742Z,49.10
2023-02-24T08:12:34.610Z,54.80
2023-02-24T08:15:08.366Z,50.20
2023-02-24T08:17:35.117Z,51.00
2023-02-24T08:20:14.112Z,48.30
2023-02-24T08:22:46.327Z,46.00
2023-02-24T08:25:17.722Z,45.70
2023-02-24T08:28:06.373Z,47.60
2023-02-24T08:30:39.774Z,45.40
2023-02-24T08:33:09.353Z,43.80
2023-02-24T08:35:38.408Z,46.20
2023-02-24T08:38:27.114Z,44.90
2023-02-24T08:40:55.260Z,44.10
2023-02-24T08:43:35.244Z,45.70
2023-02-24T08:46:32.157Z,43.10
2023-02-24T08:49:02.178Z,46.60
2023-02-24T08:51:34.322Z,40.50
2023-02-24T08:54:10.543Z,36.90
2023-02-24T08:56:42.673Z,43.70
2023-02-24T08:59:28.543Z,43.50
2023-02-24T09:02:17.000Z,42.80
2023-02-24T09:04:59.204Z,41.50
2023-02-24T09:07:40.074Z,42.50
2023-02-24T09:10:18.516Z,47.60
2023-02-24T09:12:46.150Z,44.80
2023-02-24T09:15:16.183Z,52.80
2023-02-24T09:17:44.582Z,46.50
2023-02-24T09:20:35.695Z,43.00
2023-02-24T09:23:03.796Z,38.70
2023-02-24T09:25:40.969Z,42.40
2023-02-24T09:28:18.194Z,39.20
2023-02-24T09:30:54.861Z,43.70
2023-02-24T09:33:28.716Z,50.10
2023-02-24T09:36:08.946Z,51.10
2023-02-24T09:39:01.836Z,42.00
2023-02-24T09:42:17.312Z,36.50
2023-02-24T09:44:48.607Z,42.40
2023-02-24T09:47:30.424Z,37.70
2023-02-24T09:50:07.910Z,37.10
2023-02-24T09:52:40.530Z,40.00
2023-02-24T09:55:24.509Z,36.10
2023-02-24T09:58:12.869Z,32.50
2023-02-24T10:00:44.573Z,28.30
2023-02-24T10:03:40.824Z,31.20
2023-02-24T10:06:26.353Z,30.30
2023-02-24T10:09:13.774Z,31.00
2023-02-24T10:12:07.265Z,29.00
2023-02-24T10:14:44.391Z,31.70
2023-02-24T10:17:23.950Z,28.70
2023-02-24T10:20:13.514Z,28.90
2023-02-24T10:22:53.223Z,30.50
2023-02-24T10:25:41.167Z,33.00
2023-02-24T10:28:21.694Z,31.20
2023-02-24T10:31:09.642Z,28.30
2023-02-24T10:33:44.835Z,24.50
2023-02-24T10:36:17.238Z,19.30
2023-02-24T10:38:45.069Z,16.70
2023-02-24T10:41:16.556Z,16.80
2023-02-24T10:43:55.470Z,16.80
2023-02-24T10:46:42.165Z,17.20
2023-02-24T10:49:15.686Z,17.40
2023-02-24T10:51:50.695Z,17.40
2023-02-24T10:54:44.064Z,20.60
2023-02-24T10:57:36.023Z,16.90
2023-02-24T11:00:18.258Z,14.30
2023-02-24T11:03:06.590Z,16.30
2023-02-24T11:05:45.400Z,19.70
2023-02-24T11:08:36.164Z,21.30
2023-02-24T11:11:26.105Z,21.40
2023-02-24T11:14:12.599Z,19.40
2023-02-24T11:17:10.309Z,22.00
2023-02-24T11:19:45.784Z,17.60
2023-02-24T11:22:19.880Z,19.60
2023-02-24T11:24:49.673Z,18.10
2023-02-24T11:27:23.075Z,17.90
2023-02-24T11:29:52.869Z,18.70
2023-02-24T11:32:34.799Z,19.40
2023-02-24T11:35:22.048Z,30.50
2023-02-24T11:38:05.443Z,27.60
2023-02-24T11:40:39.510Z,23.00
2023-02-24T11:43:13.869Z,24.20
2023-02-24T11:45:44.591Z,22.70
2023-02-24T11:48:38.394Z,24.10
2023-02-24T11:51:17.842Z,22.20
2023-02-24T11:53:53.204Z,24.00
2023-02-24T11:56:38.137Z,26.60
2023-02-24T11:59:19.794Z,24.70
2023-02-24T12:01:53.026Z,20.20
2023-02-24T12:04:25.756Z,20.10
2023-02-24T12:07:14.030Z,21.90
2023-02-24T12:10:16.013Z,21.50
2023-02-24T12:13:03.865Z,24.80
2023-02-24T12:15:52.629Z,18.80
2023-02-24T12:18:27.234Z,20.40
2023-02-24T12:20:59.955Z,16.80
2023-02-24T12:23:39.522Z,17.80
2023-02-24T12:26:09.372Z,18.90
2023-02-24T12:28:56.344Z,20.00
2023-02-24T12:31:38.508Z,22.40
2023-02-24T12:34:08.348Z,20.50
2023-02-24T12:37:07.017Z,23.90
2023-02-24T12:39:53.523Z,20.40
2023-02-24T12:42:31.024Z,25.00
2023-02-24T12:45:16.457Z,17.70
2023-02-24T12:47:58.526Z,17.20
2023-02-24T12:50:47.088Z,19.30
2023-02-24T12:53:26.085Z,16.40
2023-02-24T12:56:05.774Z,22.50
2023-02-24T12:58:36.632Z,19.20
2023-02-24T13:01:34.491Z,20.80
2023-02-24T13:04:23.131Z,21.90
2023-02-24T13:07:30.811Z,19.00
2023-02-24T13:10:12.089Z,20.10
2023-02-24T13:12:51.631Z,19.00
2023-02-24T13:15:24.971Z,19.10
2023-02-24T13:17:55.741Z,22.70
2023-02-24T13:20:33.605Z,20.10
2023-02-24T13:23:03.059Z,19.70
2023-02-24T13:25:39.226Z,27.50
2023-02-24T13:28:26.975Z,20.90
2023-02-24T13:31:12.059Z,25.70
2023-02-24T13:33:44.181Z,20.20
2023-02-24T13:36:15.394Z,23.20
2023-02-24T13:38:47.389Z,21.10
2023-02-24T13:41:26.525Z,22.50
2023-02-24T13:44:01.414Z,22.20
2023-02-24T13:46:49.009Z,22.30
2023-02-24T13:49:22.446Z,23.90
2023-02-24T13:51:59.222Z,21.00
2023-02-24T13:54:25.852Z,19.90
2023-02-24T13:56:55.957Z,19.80
2023-02-24T13:59:52.616Z,25.70
2023-02-24T14:02:22.426Z,23.10
2023-02-24T14:04:55.099Z,17.00
2023-02-24T14:07:24.707Z,21.00
2023-02-24T14:09:58.810Z,21.50
2023-02-24T14:12:33.666Z,23.60
2023-02-24T14:15:02.936Z,22.50
2023-02-24T14:17:33.108Z,20.30
2023-02-24T14:20:09.029Z,24.90
2023-02-24T14:22:52.548Z,23.10
2023-02-24T14:25:21.606Z,23.10
2023-02-24T14:27:52.101Z,21.60
2023-02-24T14:30:35.087Z,21.20
2023-02-24T14:33:04.214Z,21.10
2023-02-24T14:35:46.616Z,16.60
2023-02-24T14:38:39.670Z,19.70
2023-02-24T14:41:19.318Z,17.30
2023-02-24T14:43:46.299Z,18.40
2023-02-24T14:46:13.122Z,16.40
2023-02-24T14:48:39.981Z,18.80
2023-02-24T14:51:11.903Z,21.10
2023-02-24T14:53:49.014Z,20.50
2023-02-24T14:56:17.851Z,19.90
2023-02-24T14:58:53.045Z,18.90
2023-02-24T15:01:49.317Z,17.90
2023-02-24T15:04:32.238Z,18.80
2023-02-24T15:07:02.823Z,16.40
2023-02-24T15:09:36.599Z,18.60
2023-02-24T15:12:20.253Z,15.30
2023-02-24T15:15:01.318Z,18.10
2023-02-24T15:17:28.895Z,20.80
2023-02-24T15:19:55.649Z,18.10
2023-02-24T15:22:28.809Z,18.70
2023-02-24T15:25:12.519Z,16.90
2023-02-24T15:27:59.940Z,22.20
2023-02-24T15:30:34.094Z,19.40
2023-02-24T15:33:07.703Z,19.10
2023-02-24T15:35:38.460Z,22.50
2023-02-24T15:38:05.454Z,26.90
2023-02-24T15:40:33.000Z,21.50
2023-02-24T15:43:16.050Z,23.20
2023-02-24T15:46:06.723Z,21.70
2023-02-24T15:49:30.822Z,20.90
2023-02-24T15:53:20.834Z,20.20
2023-02-24T15:56:19.935Z,17.60
2023-02-24T15:59:26.499Z,16.20
2023-02-24T16:02:13.661Z,18.20
2023-02-24T16:11:06.542Z,15.80
2023-02-24T16:17:39.615Z,17.20
2023-02-24T16:25:02.554Z,18.60
2023-02-24T16:28:05.608Z,20.00
2023-02-24T16:30:48.974Z,17.20
2023-02-24T16:38:12.549Z,19.80
2023-02-24T16:41:41.799Z,23.00
2023-02-24T16:50:15.061Z,20.50
2023-02-24T16:57:11.748Z,19.50
2023-02-24T17:03:06.874Z,23.80
2023-02-24T17:06:13.707Z,18.20
2023-02-24T17:08:56.000Z,23.90
2023-02-24T17:12:02.033Z,20.80
2023-02-24T17:14:53.981Z,18.50
2023-02-24T17:17:51.112Z,24.70
2023-02-24T17:20:44.464Z,21.50
2023-02-24T17:23:45.694Z,19.00
2023-02-24T17:26:39.969Z,17.30
2023-02-24T17:29:20.599Z,23.30
2023-02-24T17:32:27.754Z,18.70
2023-02-24T17:39:06.595Z,17.20
2023-02-24T17:43:05.743Z,17.80
2023-02-24T17:45:57.156Z,23.20
2023-02-24T17:48:24.109Z,17.40
2023-02-24T17:50:51.440Z,17.90
2023-02-24T17:53:18.339Z,17.80
2023-02-24T17:56:01.381Z,17.40
2023-02-24T17:58:29.801Z,16.00
2023-02-24T18:00:56.967Z,14.40
2023-02-24T18:03:24.306Z,17.50
2023-02-24T18:06:02.991Z,21.80
2023-02-24T18:08:32.360Z,32.30
2023-02-24T18:10:59.405Z,31.30
2023-02-24T18:13:28.592Z,25.60
2023-02-24T18:15:56.210Z,29.20
2023-02-24T18:18:25.069Z,28.20
2023-02-24T18:20:52.121Z,26.20
2023-02-24T18:23:19.415Z,26.10
2023-02-24T18:25:46.266Z,22.60
2023-02-24T18:28:13.106Z,20.70
2023-02-24T18:30:40.005Z,22.20
2023-02-24T18:33:06.979Z,20.00
2023-02-24T18:35:34.261Z,22.40
2023-02-24T18:38:02.238Z,27.30
2023-02-24T18:40:29.391Z,20.70
2023-02-24T18:42:56.463Z,21.30
2023-02-24T18:45:23.948Z,26.20
2023-02-24T18:47:51.554Z,26.00
2023-02-24T18:50:20.193Z,27.10
2023-02-24T18:52:47.902Z,27.10
2023-02-24T18:55:14.950Z,32.50
2023-02-24T18:57:42.614Z,31.40
2023-02-24T19:00:12.623Z,31.60
2023-02-24T19:02:40.859Z,32.40
2023-02-24T19:05:08.286Z,36.90
2023-02-24T19:07:35.169Z,33.70
2023-02-24T19:10:02.191Z,31.10
2023-02-24T19:12:29.120Z,29.50
2023-02-24T19:14:55.978Z,33.10
2023-02-24T19:17:22.826Z,28.60
2023-02-24T19:19:50.187Z,36.10
2023-02-24T19:22:16.983Z,32.70
2023-02-24T19:24:44.514Z,29.00
2023-02-24T19:27:11.261Z,37.80
2023-02-24T19:29:37.971Z,30.80
2023-02-24T19:32:04.995Z,42.20
2023-02-24T19:34:31.874Z,46.50
2023-02-24T19:36:58.624Z,58.80
2023-02-24T19:39:25.503Z,52.20
2023-02-24T19:41:52.920Z,56.80
2023-02-24T19:44:19.859Z,52.90
2023-02-24T19:46:47.017Z,54.70
2023-02-24T19:49:13.668Z,53.20
2023-02-24T19:51:40.404Z,50.00
2023-02-24T19:54:07.217Z,46.50
2023-02-24T19:56:36.206Z,50.60
2023-02-24T19:59:10.818Z,44.50
2023-02-24T20:01:37.838Z,48.10
2023-02-24T20:04:05.245Z,45.20
2023-02-24T20:06:40.662Z,45.30
2023-02-24T20:09:10.515Z,46.80
2023-02-24T20:11:38.606Z,43.30
2023-02-24T20:14:07.936Z,42.90
2023-02-24T20:16:36.910Z,45.40
2023-02-24T20:19:05.467Z,48.30
2023-02-24T20:21:33.408Z,42.50
2023-02-24T20:24:05.335Z,49.20
2023-02-24T20:26:32.943Z,50.00
2023-02-24T20:29:00.434Z,43.20
2023-02-24T20:31:27.843Z,50.90
2023-02-24T20:33:55.853Z,52.10
2023-02-24T20:36:28.283Z,48.90
2023-02-24T20:38:57.174Z,50.10
2023-02-24T20:41:26.073Z,55.90
2023-02-24T20:43:54.674Z,51.10
2023-02-24T20:46:30.255Z,53.20
2023-02-24T20:49:03.498Z,64.40
2023-02-24T20:51:32.090Z,59.00
2023-02-24T20:54:08.490Z,49.00
2023-02-24T20:56:37.419Z,48.10
2023-02-24T20:59:12.405Z,43.40
2023-02-24T21:01:41.388Z,39.00
2023-02-24T21:04:08.275Z,40.20
2023-02-24T21:06:36.576Z,37.80
2023-02-24T21:09:03.868Z,41.40
2023-02-24T21:11:32.191Z,33.20
2023-02-24T21:13:59.522Z,38.90
2023-02-24T21:16:27.370Z,35.00
2023-02-24T21:18:55.711Z,41.40
2023-02-24T21:21:22.667Z,35.60
2023-02-24T21:23:49.980Z,39.30
2023-02-24T21:26:17.238Z,39.10
2023-02-24T21:28:44.380Z,40.10
2023-02-24T21:31:14.330Z,44.00
2023-02-24T21:33:53.762Z,42.00
2023-02-24T21:36:39.929Z,41.90
2023-02-24T21:39:07.092Z,41.80
2023-02-24T21:41:35.880Z,37.50
2023-02-24T21:44:03.298Z,39.20
2023-02-24T21:46:30.601Z,36.80
2023-02-24T21:48:58.490Z,41.00
2023-02-24T21:51:27.234Z,39.00
2023-02-24T21:53:55.303Z,34.10
2023-02-24T21:56:25.772Z,32.90
2023-02-24T21:58:54.120Z,33.90
2023-02-24T22:01:25.162Z,34.50
2023-02-24T22:03:57.299Z,32.40
2023-02-24T22:06:31.343Z,31.40
2023-02-24T22:08:59.336Z,31.90
2023-02-24T22:11:26.793Z,30.60
2023-02-24T22:13:53.657Z,35.00
2023-02-24T22:16:22.890Z,41.80
2023-02-24T22:18:51.320Z,37.70
2023-02-24T22:21:21.081Z,36.60
2023-02-24T22:23:51.823Z,38.00
2023-02-24T22:26:22.402Z,31.90
2023-02-24T22:28:49.332Z,32.30
2023-02-24T22:31:18.682Z,34.20
2023-02-24T22:33:46.266Z,30.40
2023-02-24T22:36:16.621Z,32.50
2023-02-24T22:38:47.646Z,27.60
2023-02-24T22:41:17.328Z,31.40
2023-02-24T22:43:44.574Z,30.70
2023-02-24T22:46:14.188Z,30.70
2023-02-24T22:48:42.914Z,28.70
2023-02-24T22:51:11.728Z,29.40
2023-02-24T22:53:41.636Z,29.50
2023-02-24T22:56:12.738Z,29.10
2023-02-24T22:58:39.579Z,34.90
2023-02-24T23:01:11.430Z,41.80
2023-02-24T23:03:39.570Z,43.60
2023-02-24T23:06:15.896Z,34.40
2023-02-24T23:08:45.860Z,35.80
2023-02-24T23:11:14.438Z,33.20
2023-02-24T23:13:44.184Z,29.10
2023-02-24T23:16:14.415Z,27.80
2023-02-24T23:18:47.974Z,23.20
2023-02-24T23:21:15.529Z,25.50
2023-02-24T23:23:42.604Z,26.70
2023-02-24T23:26:10.854Z,26.90
2023-02-24T23:28:38.692Z,24.10
2023-02-24T23:31:06.663Z,26.80
2023-02-24T23:33:34.055Z,33.90
2023-02-24T23:36:06.226Z,30.40
2023-02-24T23:38:33.735Z,27.80
2023-02-24T23:41:00.761Z,29.80
2023-02-24T23:43:27.521Z,36.40
2023-02-24T23:45:55.089Z,27.30
2023-02-24T23:48:22.029Z,28.70
2023-02-24T23:50:50.644Z,27.50
2023-02-24T23:53:17.630Z,32.90
2023-02-24T23:55:44.350Z,31.20
2023-02-24T23:58:11.294Z,25.30
